sensor_id;sensor_type;location;lat;lon;timestamp;P1;durP1;ratioP1;P2;durP2;ratioP2
29380;SDS011;16364;52.490;13.326;2022-09-25T00:02:07;7.00;;;6.40;;
29380;SDS011;16364;52.490;13.326;2022-09-25T00:04:32;7.20;;;6.50;;
29380;SDS011;16364;52.490;13.326;2022-09-25T00:06:57;5.87;;;5.37;;
29380;SDS011;16364;52.490;13.326;2022-09-25T00:09:22;7.50;;;5.57;;
29380;SDS011;16364;52.490;13.326;2022-09-25T00:11:47;6.60;;;5.97;;
29380;SDS011;16364;52.490;13.326;2022-09-25T00:14:13;6.10;;;5.70;;
29380;SDS011;16364;52.490;13.326;2022-09-25T00:16:38;7.17;;;6.47;;
29380;SDS011;16364;52.490;13.326;2022-09-25T00:19:03;6.33;;;5.93;;
29380;SDS011;16364;52.490;13.326;2022-09-25T00:21:47;6.63;;;6.07;;
29380;SDS011;16364;52.490;13.326;2022-09-25T00:24:16;6.47;;;6.00;;
29380;SDS011;16364;52.490;13.326;2022-09-25T00:26:42;7.27;;;6.67;;
29380;SDS011;16364;52.490;13.326;2022-09-25T00:29:08;7.67;;;6.97;;
29380;SDS011;16364;52.490;13.326;2022-09-25T00:31:34;7.13;;;6.53;;
29380;SDS011;16364;52.490;13.326;2022-09-25T00:34:00;6.60;;;6.03;;
29380;SDS011;16364;52.490;13.326;2022-09-25T00:36:26;5.17;;;4.77;;
29380;SDS011;16364;52.490;13.326;2022-09-25T00:38:52;6.30;;;5.80;;
29380;SDS011;16364;52.490;13.326;2022-09-25T00:41:19;6.27;;;5.70;;
29380;SDS011;16364;52.490;13.326;2022-09-25T00:43:48;6.37;;;5.77;;
29380;SDS011;16364;52.490;13.326;2022-09-25T00:48:50;6.23;;;5.63;;
29380;SDS011;16364;52.490;13.326;2022-09-25T00:51:17;6.80;;;6.20;;
29380;SDS011;16364;52.490;13.326;2022-09-25T00:53:44;5.27;;;4.87;;
29380;SDS011;16364;52.490;13.326;2022-09-25T00:56:09;5.50;;;5.10;;
29380;SDS011;16364;52.490;13.326;2022-09-25T00:58:36;5.63;;;5.10;;
29380;SDS011;16364;52.490;13.326;2022-09-25T01:01:04;6.17;;;5.67;;
29380;SDS011;16364;52.490;13.326;2022-09-25T01:03:30;6.63;;;5.40;;
29380;SDS011;16364;52.490;13.326;2022-09-25T01:05:55;6.77;;;6.17;;
29380;SDS011;16364;52.490;13.326;2022-09-25T01:08:24;5.27;;;4.87;;
29380;SDS011;16364;52.490;13.326;2022-09-25T01:10:50;5.33;;;4.97;;
29380;SDS011;16364;52.490;13.326;2022-09-25T01:13:16;5.87;;;5.37;;
29380;SDS011;16364;52.490;13.326;2022-09-25T01:23:12;6.23;;;5.80;;
29380;SDS011;16364;52.490;13.326;2022-09-25T01:30:50;5.33;;;4.93;;
29380;SDS011;16364;52.490;13.326;2022-09-25T01:33:17;5.50;;;5.10;;
29380;SDS011;16364;52.490;13.326;2022-09-25T01:35:46;6.37;;;5.87;;
29380;SDS011;16364;52.490;13.326;2022-09-25T01:40:45;6.00;;;5.50;;
29380;SDS011;16364;52.490;13.326;2022-09-25T01:43:15;7.00;;;5.80;;
29380;SDS011;16364;52.490;13.326;2022-09-25T01:46:00;5.40;;;4.90;;
29380;SDS011;16364;52.490;13.326;2022-09-25T01:48:27;10.37;;;6.13;;
29380;SDS011;16364;52.490;13.326;2022-09-25T01:51:12;7.27;;;6.67;;
29380;SDS011;16364;52.490;13.326;2022-09-25T01:53:42;6.83;;;5.63;;
29380;SDS011;16364;52.490;13.326;2022-09-25T01:56:28;6.13;;;5.53;;
29380;SDS011;16364;52.490;13.326;2022-09-25T01:59:20;5.80;;;5.30;;
29380;SDS011;16364;52.490;13.326;2022-09-25T02:01:44;6.87;;;6.33;;
29380;SDS011;16364;52.490;13.326;2022-09-25T02:04:12;5.87;;;5.47;;
29380;SDS011;16364;52.490;13.326;2022-09-25T02:06:39;6.87;;;6.37;;
29380;SDS011;16364;52.490;13.326;2022-09-25T02:09:18;6.50;;;6.00;;
29380;SDS011;16364;52.490;13.326;2022-09-25T02:11:47;5.63;;;5.23;;
29380;SDS011;16364;52.490;13.326;2022-09-25T02:14:14;6.20;;;5.60;;
29380;SDS011;16364;52.490;13.326;2022-09-25T02:16:40;5.30;;;4.93;;
29380;SDS011;16364;52.490;13.326;2022-09-25T02:19:08;5.20;;;4.87;;
29380;SDS011;16364;52.490;13.326;2022-09-25T02:22:03;6.37;;;5.87;;
29380;SDS011;16364;52.490;13.326;2022-09-25T02:24:32;5.23;;;4.87;;
29380;SDS011;16364;52.490;13.326;2022-09-25T02:26:59;5.30;;;4.90;;
29380;SDS011;16364;52.490;13.326;2022-09-25T02:29:24;5.80;;;5.40;;
29380;SDS011;16364;52.490;13.326;2022-09-25T02:31:50;6.43;;;5.50;;
29380;SDS011;16364;52.490;13.326;2022-09-25T02:34:18;5.97;;;5.53;;
29380;SDS011;16364;52.490;13.326;2022-09-25T02:36:43;5.90;;;5.27;;
29380;SDS011;16364;52.490;13.326;2022-09-25T02:39:08;4.90;;;4.50;;
29380;SDS011;16364;52.490;13.326;2022-09-25T02:44:15;6.50;;;6.07;;
29380;SDS011;16364;52.490;13.326;2022-09-25T02:52:10;6.60;;;6.00;;
29380;SDS011;16364;52.490;13.326;2022-09-25T02:54:40;6.53;;;5.97;;
29380;SDS011;16364;52.490;13.326;2022-09-25T02:57:11;6.83;;;6.23;;
29380;SDS011;16364;52.490;13.326;2022-09-25T02:59:50;7.53;;;6.83;;
29380;SDS011;16364;52.490;13.326;2022-09-25T03:02:17;6.70;;;6.23;;
29380;SDS011;16364;52.490;13.326;2022-09-25T03:04:43;8.17;;;7.47;;
29380;SDS011;16364;52.490;13.326;2022-09-25T03:07:08;6.13;;;5.73;;
29380;SDS011;16364;52.490;13.326;2022-09-25T03:09:35;5.60;;;5.10;;
29380;SDS011;16364;52.490;13.326;2022-09-25T03:12:02;7.27;;;6.17;;
29380;SDS011;16364;52.490;13.326;2022-09-25T03:14:29;5.80;;;5.40;;
29380;SDS011;16364;52.490;13.326;2022-09-25T03:16:55;5.77;;;5.37;;
29380;SDS011;16364;52.490;13.326;2022-09-25T03:19:21;6.00;;;5.60;;
29380;SDS011;16364;52.490;13.326;2022-09-25T03:21:47;6.20;;;5.80;;
29380;SDS011;16364;52.490;13.326;2022-09-25T03:24:13;5.70;;;5.40;;
29380;SDS011;16364;52.490;13.326;2022-09-25T03:26:38;5.70;;;5.20;;
29380;SDS011;16364;52.490;13.326;2022-09-25T03:29:04;6.77;;;6.27;;
29380;SDS011;16364;52.490;13.326;2022-09-25T03:31:30;5.50;;;5.20;;
29380;SDS011;16364;52.490;13.326;2022-09-25T03:33:55;5.90;;;5.40;;
29380;SDS011;16364;52.490;13.326;2022-09-25T03:36:21;8.43;;;6.37;;
29380;SDS011;16364;52.490;13.326;2022-09-25T03:38:48;7.40;;;6.80;;
29380;SDS011;16364;52.490;13.326;2022-09-25T03:41:16;7.20;;;6.60;;
29380;SDS011;16364;52.490;13.326;2022-09-25T03:43:44;7.13;;;6.50;;
29380;SDS011;16364;52.490;13.326;2022-09-25T03:46:11;7.70;;;7.20;;
29380;SDS011;16364;52.490;13.326;2022-09-25T03:48:37;7.80;;;7.00;;
29380;SDS011;16364;52.490;13.326;2022-09-25T03:51:03;12.10;;;8.07;;
29380;SDS011;16364;52.490;13.326;2022-09-25T03:53:28;6.60;;;6.10;;
29380;SDS011;16364;52.490;13.326;2022-09-25T03:55:55;8.27;;;7.53;;
29380;SDS011;16364;52.490;13.326;2022-09-25T03:58:21;7.10;;;6.63;;
29380;SDS011;16364;52.490;13.326;2022-09-25T04:00:46;6.83;;;6.43;;
29380;SDS011;16364;52.490;13.326;2022-09-25T04:03:12;7.13;;;6.13;;
29380;SDS011;16364;52.490;13.326;2022-09-25T04:05:37;7.37;;;6.73;;
29380;SDS011;16364;52.490;13.326;2022-09-25T04:08:03;8.43;;;7.83;;
29380;SDS011;16364;52.490;13.326;2022-09-25T04:10:28;7.47;;;6.90;;
29380;SDS011;16364;52.490;13.326;2022-09-25T04:12:54;7.47;;;6.90;;
29380;SDS011;16364;52.490;13.326;2022-09-25T04:15:20;10.13;;;9.23;;
29380;SDS011;16364;52.490;13.326;2022-09-25T04:17:47;8.63;;;7.97;;
29380;SDS011;16364;52.490;13.326;2022-09-25T04:20:12;9.23;;;8.43;;
29380;SDS011;16364;52.490;13.326;2022-09-25T04:22:37;9.03;;;8.33;;
29380;SDS011;16364;52.490;13.326;2022-09-25T04:25:02;8.00;;;7.40;;
29380;SDS011;16364;52.490;13.326;2022-09-25T04:27:28;7.87;;;7.37;;
29380;SDS011;16364;52.490;13.326;2022-09-25T04:29:53;8.37;;;7.57;;
29380;SDS011;16364;52.490;13.326;2022-09-25T04:32:18;8.80;;;8.10;;
29380;SDS011;16364;52.490;13.326;2022-09-25T04:35:02;8.97;;;7.97;;
29380;SDS011;16364;52.490;13.326;2022-09-25T04:37:28;8.00;;;7.30;;
29380;SDS011;16364;52.490;13.326;2022-09-25T04:39:53;7.87;;;7.17;;
29380;SDS011;16364;52.490;13.326;2022-09-25T04:42:19;7.60;;;6.90;;
29380;SDS011;16364;52.490;13.326;2022-09-25T04:44:48;8.67;;;7.90;;
29380;SDS011;16364;52.490;13.326;2022-09-25T04:47:13;8.13;;;7.33;;
29380;SDS011;16364;52.490;13.326;2022-09-25T04:49:38;8.80;;;7.90;;
29380;SDS011;16364;52.490;13.326;2022-09-25T04:52:03;9.80;;;8.83;;
29380;SDS011;16364;52.490;13.326;2022-09-25T04:54:28;9.40;;;8.50;;
29380;SDS011;16364;52.490;13.326;2022-09-25T04:56:53;8.20;;;7.50;;
29380;SDS011;16364;52.490;13.326;2022-09-25T04:59:19;8.47;;;7.77;;
29380;SDS011;16364;52.490;13.326;2022-09-25T05:01:44;9.67;;;8.77;;
29380;SDS011;16364;52.490;13.326;2022-09-25T05:04:09;8.27;;;7.57;;
29380;SDS011;16364;52.490;13.326;2022-09-25T05:06:34;9.43;;;8.37;;
29380;SDS011;16364;52.490;13.326;2022-09-25T05:08:59;8.93;;;8.27;;
29380;SDS011;16364;52.490;13.326;2022-09-25T05:11:24;9.07;;;8.23;;
29380;SDS011;16364;52.490;13.326;2022-09-25T05:13:50;8.60;;;7.90;;
29380;SDS011;16364;52.490;13.326;2022-09-25T05:16:15;8.60;;;8.00;;
29380;SDS011;16364;52.490;13.326;2022-09-25T05:18:41;8.30;;;7.63;;
29380;SDS011;16364;52.490;13.326;2022-09-25T05:21:06;8.33;;;7.53;;
29380;SDS011;16364;52.490;13.326;2022-09-25T05:23:31;9.07;;;8.45;;
29380;SDS011;16364;52.490;13.326;2022-09-25T05:25:56;9.80;;;8.90;;
29380;SDS011;16364;52.490;13.326;2022-09-25T05:28:26;9.13;;;8.33;;
29380;SDS011;16364;52.490;13.326;2022-09-25T05:30:52;10.17;;;9.27;;
29380;SDS011;16364;52.490;13.326;2022-09-25T05:33:17;9.07;;;8.37;;
29380;SDS011;16364;52.490;13.326;2022-09-25T05:35:45;8.50;;;7.80;;
29380;SDS011;16364;52.490;13.326;2022-09-25T05:38:12;9.47;;;8.03;;
29380;SDS011;16364;52.490;13.326;2022-09-25T05:40:37;9.47;;;8.77;;
29380;SDS011;16364;52.490;13.326;2022-09-25T05:43:05;8.57;;;7.90;;
29380;SDS011;16364;52.490;13.326;2022-09-25T05:45:31;9.27;;;8.23;;
29380;SDS011;16364;52.490;13.326;2022-09-25T05:48:04;9.03;;;8.33;;
29380;SDS011;16364;52.490;13.326;2022-09-25T05:50:30;8.60;;;7.90;;
29380;SDS011;16364;52.490;13.326;2022-09-25T05:52:59;8.00;;;7.20;;
29380;SDS011;16364;52.490;13.326;2022-09-25T05:55:24;8.67;;;7.97;;
29380;SDS011;16364;52.490;13.326;2022-09-25T05:57:50;8.57;;;7.87;;
29380;SDS011;16364;52.490;13.326;2022-09-25T06:00:15;9.70;;;8.90;;
29380;SDS011;16364;52.490;13.326;2022-09-25T06:02:41;8.50;;;7.80;;
29380;SDS011;16364;52.490;13.326;2022-09-25T06:05:06;7.70;;;7.00;;
29380;SDS011;16364;52.490;13.326;2022-09-25T06:07:33;8.70;;;8.00;;
29380;SDS011;16364;52.490;13.326;2022-09-25T06:09:58;7.73;;;7.03;;
29380;SDS011;16364;52.490;13.326;2022-09-25T06:12:23;7.10;;;6.60;;
29380;SDS011;16364;52.490;13.326;2022-09-25T06:14:48;8.50;;;7.83;;
29380;SDS011;16364;52.490;13.326;2022-09-25T06:17:14;8.60;;;7.87;;
29380;SDS011;16364;52.490;13.326;2022-09-25T06:19:40;9.37;;;8.43;;
29380;SDS011;16364;52.490;13.326;2022-09-25T06:22:05;9.90;;;9.10;;
29380;SDS011;16364;52.490;13.326;2022-09-25T06:24:30;11.03;;;10.00;;
29380;SDS011;16364;52.490;13.326;2022-09-25T06:26:55;13.50;;;12.20;;
29380;SDS011;16364;52.490;13.326;2022-09-25T06:29:21;10.53;;;9.63;;
29380;SDS011;16364;52.490;13.326;2022-09-25T06:31:46;9.80;;;8.90;;
29380;SDS011;16364;52.490;13.326;2022-09-25T06:34:11;10.73;;;9.83;;
29380;SDS011;16364;52.490;13.326;2022-09-25T06:36:36;9.57;;;8.77;;
29380;SDS011;16364;52.490;13.326;2022-09-25T06:39:02;15.93;;;10.40;;
29380;SDS011;16364;52.490;13.326;2022-09-25T06:41:27;10.73;;;9.63;;
29380;SDS011;16364;52.490;13.326;2022-09-25T06:43:53;10.90;;;9.80;;
29380;SDS011;16364;52.490;13.326;2022-09-25T06:46:19;9.30;;;8.50;;
29380;SDS011;16364;52.490;13.326;2022-09-25T06:48:50;8.40;;;7.80;;
29380;SDS011;16364;52.490;13.326;2022-09-25T06:51:18;8.90;;;8.20;;
29380;SDS011;16364;52.490;13.326;2022-09-25T06:53:43;8.60;;;7.80;;
29380;SDS011;16364;52.490;13.326;2022-09-25T06:56:08;8.90;;;8.20;;
29380;SDS011;16364;52.490;13.326;2022-09-25T06:58:33;9.13;;;8.30;;
29380;SDS011;16364;52.490;13.326;2022-09-25T07:01:00;8.00;;;7.40;;
29380;SDS011;16364;52.490;13.326;2022-09-25T07:03:25;8.10;;;7.50;;
29380;SDS011;16364;52.490;13.326;2022-09-25T07:06:09;11.27;;;10.20;;
29380;SDS011;16364;52.490;13.326;2022-09-25T07:08:35;9.10;;;8.40;;
29380;SDS011;16364;52.490;13.326;2022-09-25T07:11:00;10.00;;;9.00;;
29380;SDS011;16364;52.490;13.326;2022-09-25T07:13:29;10.40;;;9.50;;
29380;SDS011;16364;52.490;13.326;2022-09-25T07:15:59;9.70;;;8.10;;
29380;SDS011;16364;52.490;13.326;2022-09-25T07:18:25;9.37;;;8.47;;
29380;SDS011;16364;52.490;13.326;2022-09-25T07:20:50;11.20;;;10.10;;
29380;SDS011;16364;52.490;13.326;2022-09-25T07:23:16;12.10;;;11.00;;
29380;SDS011;16364;52.490;13.326;2022-09-25T07:25:42;8.80;;;8.00;;
29380;SDS011;16364;52.490;13.326;2022-09-25T07:28:08;10.57;;;9.50;;
29380;SDS011;16364;52.490;13.326;2022-09-25T07:30:33;9.30;;;8.50;;
29380;SDS011;16364;52.490;13.326;2022-09-25T07:32:59;10.47;;;9.53;;
29380;SDS011;16364;52.490;13.326;2022-09-25T07:35:24;9.83;;;9.03;;
29380;SDS011;16364;52.490;13.326;2022-09-25T07:37:51;11.87;;;10.73;;
29380;SDS011;16364;52.490;13.326;2022-09-25T07:40:16;9.10;;;8.40;;
29380;SDS011;16364;52.490;13.326;2022-09-25T07:42:41;10.13;;;8.70;;
29380;SDS011;16364;52.490;13.326;2022-09-25T07:45:06;8.67;;;8.10;;
29380;SDS011;16364;52.490;13.326;2022-09-25T07:47:32;11.37;;;10.37;;
29380;SDS011;16364;52.490;13.326;2022-09-25T07:49:57;8.40;;;7.70;;
29380;SDS011;16364;52.490;13.326;2022-09-25T07:52:22;10.80;;;9.83;;
29380;SDS011;16364;52.490;13.326;2022-09-25T07:54:48;11.23;;;10.27;;
29380;SDS011;16364;52.490;13.326;2022-09-25T07:57:13;9.57;;;8.70;;
29380;SDS011;16364;52.490;13.326;2022-09-25T07:59:38;9.43;;;8.63;;
29380;SDS011;16364;52.490;13.326;2022-09-25T08:02:04;9.13;;;8.33;;
29380;SDS011;16364;52.490;13.326;2022-09-25T08:04:29;9.37;;;8.70;;
29380;SDS011;16364;52.490;13.326;2022-09-25T08:06:56;9.87;;;8.30;;
29380;SDS011;16364;52.490;13.326;2022-09-25T08:09:21;9.43;;;8.53;;
29380;SDS011;16364;52.490;13.326;2022-09-25T08:11:47;8.53;;;7.93;;
29380;SDS011;16364;52.490;13.326;2022-09-25T08:14:12;8.65;;;7.95;;
29380;SDS011;16364;52.490;13.326;2022-09-25T08:16:38;8.77;;;7.90;;
29380;SDS011;16364;52.490;13.326;2022-09-25T08:19:03;7.90;;;7.30;;
29380;SDS011;16364;52.490;13.326;2022-09-25T08:21:28;9.50;;;8.70;;
29380;SDS011;16364;52.490;13.326;2022-09-25T08:23:54;8.97;;;8.20;;
29380;SDS011;16364;52.490;13.326;2022-09-25T08:26:20;11.53;;;10.43;;
29380;SDS011;16364;52.490;13.326;2022-09-25T08:28:46;9.60;;;8.80;;
29380;SDS011;16364;52.490;13.326;2022-09-25T08:31:11;9.73;;;8.43;;
29380;SDS011;16364;52.490;13.326;2022-09-25T08:33:38;9.13;;;8.30;;
29380;SDS011;16364;52.490;13.326;2022-09-25T08:36:04;9.53;;;8.63;;
29380;SDS011;16364;52.490;13.326;2022-09-25T08:38:30;10.10;;;9.30;;
29380;SDS011;16364;52.490;13.326;2022-09-25T08:43:27;12.67;;;10.20;;
29380;SDS011;16364;52.490;13.326;2022-09-25T08:45:54;9.17;;;7.97;;
29380;SDS011;16364;52.490;13.326;2022-09-25T08:48:52;9.03;;;8.07;;
29380;SDS011;16364;52.490;13.326;2022-09-25T08:51:31;9.70;;;8.80;;
29380;SDS011;16364;52.490;13.326;2022-09-25T08:53:57;10.43;;;9.37;;
29380;SDS011;16364;52.490;13.326;2022-09-25T08:56:23;8.77;;;8.07;;
29380;SDS011;16364;52.490;13.326;2022-09-25T08:58:53;9.23;;;8.30;;
29380;SDS011;16364;52.490;13.326;2022-09-25T09:01:23;9.20;;;8.37;;
29380;SDS011;16364;52.490;13.326;2022-09-25T09:06:15;11.10;;;10.10;;
29380;SDS011;16364;52.490;13.326;2022-09-25T09:08:42;10.43;;;9.50;;
29380;SDS011;16364;52.490;13.326;2022-09-25T09:11:12;10.77;;;9.73;;
29380;SDS011;16364;52.490;13.326;2022-09-25T09:13:51;12.87;;;11.73;;
29380;SDS011;16364;52.490;13.326;2022-09-25T09:16:38;13.40;;;11.90;;
29380;SDS011;16364;52.490;13.326;2022-09-25T09:19:06;9.90;;;8.93;;
29380;SDS011;16364;52.490;13.326;2022-09-25T09:21:35;12.13;;;11.03;;
29380;SDS011;16364;52.490;13.326;2022-09-25T09:29:19;8.93;;;8.17;;
29380;SDS011;16364;52.490;13.326;2022-09-25T09:36:54;11.57;;;10.47;;
29380;SDS011;16364;52.490;13.326;2022-09-25T09:44:38;7.77;;;7.07;;
29380;SDS011;16364;52.490;13.326;2022-09-25T09:47:12;9.53;;;8.60;;
29380;SDS011;16364;52.490;13.326;2022-09-25T09:52:11;11.37;;;10.37;;
29380;SDS011;16364;52.490;13.326;2022-09-25T09:57:29;11.00;;;9.00;;
29380;SDS011;16364;52.490;13.326;2022-09-25T10:05:25;9.77;;;8.87;;
29380;SDS011;16364;52.490;13.326;2022-09-25T10:07:51;11.40;;;10.33;;
29380;SDS011;16364;52.490;13.326;2022-09-25T10:10:18;11.73;;;10.67;;
29380;SDS011;16364;52.490;13.326;2022-09-25T10:12:49;10.67;;;9.73;;
29380;SDS011;16364;52.490;13.326;2022-09-25T10:17:53;12.30;;;11.30;;
29380;SDS011;16364;52.490;13.326;2022-09-25T10:20:20;11.07;;;10.07;;
29380;SDS011;16364;52.490;13.326;2022-09-25T10:22:45;11.67;;;10.40;;
29380;SDS011;16364;52.490;13.326;2022-09-25T10:25:11;10.80;;;9.90;;
29380;SDS011;16364;52.490;13.326;2022-09-25T10:35:14;10.83;;;9.43;;
29380;SDS011;16364;52.490;13.326;2022-09-25T10:37:39;9.70;;;8.80;;
29380;SDS011;16364;52.490;13.326;2022-09-25T10:40:06;8.53;;;7.83;;
29380;SDS011;16364;52.490;13.326;2022-09-25T10:42:38;9.93;;;9.00;;
29380;SDS011;16364;52.490;13.326;2022-09-25T10:47:59;7.97;;;7.27;;
29380;SDS011;16364;52.490;13.326;2022-09-25T10:50:43;8.83;;;8.03;;
29380;SDS011;16364;52.490;13.326;2022-09-25T10:53:27;8.87;;;7.97;;
29380;SDS011;16364;52.490;13.326;2022-09-25T10:55:56;8.13;;;7.47;;
29380;SDS011;16364;52.490;13.326;2022-09-25T10:58:28;9.60;;;8.70;;
29380;SDS011;16364;52.490;13.326;2022-09-25T11:00:55;7.67;;;7.07;;
29380;SDS011;16364;52.490;13.326;2022-09-25T11:03:23;7.33;;;6.80;;
29380;SDS011;16364;52.490;13.326;2022-09-25T11:05:53;9.00;;;7.93;;
29380;SDS011;16364;52.490;13.326;2022-09-25T11:08:20;9.80;;;8.17;;
29380;SDS011;16364;52.490;13.326;2022-09-25T11:10:51;8.07;;;7.37;;
29380;SDS011;16364;52.490;13.326;2022-09-25T11:13:36;8.70;;;7.90;;
29380;SDS011;16364;52.490;13.326;2022-09-25T11:16:03;9.37;;;8.57;;
29380;SDS011;16364;52.490;13.326;2022-09-25T11:18:37;8.20;;;7.50;;
29380;SDS011;16364;52.490;13.326;2022-09-25T11:21:03;8.53;;;7.93;;
29380;SDS011;16364;52.490;13.326;2022-09-25T11:26:19;7.03;;;6.43;;
29380;SDS011;16364;52.490;13.326;2022-09-25T11:28:50;8.70;;;7.90;;
29380;SDS011;16364;52.490;13.326;2022-09-25T11:34:08;8.70;;;8.00;;
29380;SDS011;16364;52.490;13.326;2022-09-25T11:36:40;7.10;;;6.60;;
29380;SDS011;16364;52.490;13.326;2022-09-25T11:39:12;7.40;;;6.90;;
29380;SDS011;16364;52.490;13.326;2022-09-25T11:42:05;7.63;;;6.93;;
29380;SDS011;16364;52.490;13.326;2022-09-25T11:44:49;7.73;;;6.93;;
29380;SDS011;16364;52.490;13.326;2022-09-25T11:50:04;6.97;;;6.47;;
29380;SDS011;16364;52.490;13.326;2022-09-25T12:07:47;6.53;;;6.13;;
29380;SDS011;16364;52.490;13.326;2022-09-25T12:13:03;5.53;;;5.10;;
29380;SDS011;16364;52.490;13.326;2022-09-25T12:21:03;4.77;;;4.47;;
29380;SDS011;16364;52.490;13.326;2022-09-25T12:23:47;4.67;;;4.27;;
29380;SDS011;16364;52.490;13.326;2022-09-25T12:26:22;6.07;;;5.20;;
29380;SDS011;16364;52.490;13.326;2022-09-25T12:31:38;4.63;;;4.30;;
29380;SDS011;16364;52.490;13.326;2022-09-25T12:37:09;4.53;;;4.17;;
29380;SDS011;16364;52.490;13.326;2022-09-25T12:39:36;5.07;;;4.63;;
29380;SDS011;16364;52.490;13.326;2022-09-25T12:42:12;5.07;;;4.77;;
29380;SDS011;16364;52.490;13.326;2022-09-25T12:45:08;4.77;;;4.47;;
29380;SDS011;16364;52.490;13.326;2022-09-25T12:47:41;4.40;;;4.10;;
29380;SDS011;16364;52.490;13.326;2022-09-25T12:50:16;5.23;;;4.83;;
29380;SDS011;16364;52.490;13.326;2022-09-25T12:52:45;4.50;;;4.13;;
29380;SDS011;16364;52.490;13.326;2022-09-25T12:55:15;4.90;;;4.50;;
29380;SDS011;16364;52.490;13.326;2022-09-25T12:57:44;3.90;;;3.60;;
29380;SDS011;16364;52.490;13.326;2022-09-25T13:03:03;4.90;;;4.60;;
29380;SDS011;16364;52.490;13.326;2022-09-25T13:08:12;4.70;;;4.30;;
29380;SDS011;16364;52.490;13.326;2022-09-25T13:13:10;4.85;;;4.45;;
29380;SDS011;16364;52.490;13.326;2022-09-25T13:15:37;6.07;;;5.57;;
29380;SDS011;16364;52.490;13.326;2022-09-25T13:18:04;5.33;;;5.03;;
29380;SDS011;16364;52.490;13.326;2022-09-25T13:22:56;7.20;;;6.20;;
29380;SDS011;16364;52.490;13.326;2022-09-25T13:25:21;5.67;;;5.30;;
29380;SDS011;16364;52.490;13.326;2022-09-25T13:27:47;6.33;;;5.83;;
29380;SDS011;16364;52.490;13.326;2022-09-25T13:30:33;6.83;;;6.43;;
29380;SDS011;16364;52.490;13.326;2022-09-25T13:32:58;6.60;;;6.10;;
29380;SDS011;16364;52.490;13.326;2022-09-25T13:35:26;6.47;;;6.00;;
29380;SDS011;16364;52.490;13.326;2022-09-25T13:37:52;5.67;;;5.27;;
29380;SDS011;16364;52.490;13.326;2022-09-25T13:43:15;6.60;;;6.17;;
29380;SDS011;16364;52.490;13.326;2022-09-25T13:45:40;6.20;;;5.90;;
29380;SDS011;16364;52.490;13.326;2022-09-25T13:48:10;7.90;;;7.30;;
29380;SDS011;16364;52.490;13.326;2022-09-25T13:50:40;6.90;;;6.50;;
29380;SDS011;16364;52.490;13.326;2022-09-25T13:55:41;9.70;;;7.80;;
29380;SDS011;16364;52.490;13.326;2022-09-25T13:58:17;7.10;;;6.60;;
29380;SDS011;16364;52.490;13.326;2022-09-25T14:05:56;7.17;;;6.60;;
29380;SDS011;16364;52.490;13.326;2022-09-25T14:08:21;7.90;;;6.90;;
29380;SDS011;16364;52.490;13.326;2022-09-25T14:10:48;7.10;;;6.57;;
29380;SDS011;16364;52.490;13.326;2022-09-25T14:13:14;7.07;;;6.47;;
29380;SDS011;16364;52.490;13.326;2022-09-25T14:15:40;7.67;;;6.97;;
29380;SDS011;16364;52.490;13.326;2022-09-25T14:18:07;8.97;;;8.17;;
29380;SDS011;16364;52.490;13.326;2022-09-25T14:23:45;8.10;;;7.40;;
29380;SDS011;16364;52.490;13.326;2022-09-25T14:25:58;6.50;;;6.00;;
29380;SDS011;16364;52.490;13.326;2022-09-25T14:28:24;8.20;;;7.60;;
29380;SDS011;16364;52.490;13.326;2022-09-25T14:36:30;7.60;;;7.00;;
29380;SDS011;16364;52.490;13.326;2022-09-25T14:46:51;7.20;;;6.70;;
29380;SDS011;16364;52.490;13.326;2022-09-25T14:49:27;7.40;;;6.70;;
29380;SDS011;16364;52.490;13.326;2022-09-25T14:51:54;10.90;;;6.50;;
29380;SDS011;16364;52.490;13.326;2022-09-25T14:54:21;6.93;;;6.27;;
29380;SDS011;16364;52.490;13.326;2022-09-25T14:56:48;7.00;;;6.40;;
29380;SDS011;16364;52.490;13.326;2022-09-25T14:59:15;7.13;;;6.63;;
29380;SDS011;16364;52.490;13.326;2022-09-25T15:01:46;7.57;;;7.00;;
29380;SDS011;16364;52.490;13.326;2022-09-25T15:04:17;6.90;;;6.33;;
29380;SDS011;16364;52.490;13.326;2022-09-25T15:06:56;9.23;;;7.13;;
29380;SDS011;16364;52.490;13.326;2022-09-25T15:09:29;7.90;;;7.20;;
29380;SDS011;16364;52.490;13.326;2022-09-25T15:11:54;7.10;;;6.60;;
29380;SDS011;16364;52.490;13.326;2022-09-25T15:14:19;9.17;;;8.37;;
29380;SDS011;16364;52.490;13.326;2022-09-25T15:16:45;8.17;;;7.47;;
29380;SDS011;16364;52.490;13.326;2022-09-25T15:19:30;8.67;;;6.83;;
29380;SDS011;16364;52.490;13.326;2022-09-25T15:21:57;7.50;;;6.90;;
29380;SDS011;16364;52.490;13.326;2022-09-25T15:24:23;7.80;;;7.20;;
29380;SDS011;16364;52.490;13.326;2022-09-25T15:27:01;7.70;;;7.10;;
29380;SDS011;16364;52.490;13.326;2022-09-25T15:29:28;7.73;;;6.90;;
29380;SDS011;16364;52.490;13.326;2022-09-25T15:31:55;7.13;;;6.60;;
29380;SDS011;16364;52.490;13.326;2022-09-25T15:34:21;7.90;;;7.10;;
29380;SDS011;16364;52.490;13.326;2022-09-25T15:36:47;7.10;;;6.50;;
29380;SDS011;16364;52.490;13.326;2022-09-25T15:39:15;6.90;;;6.37;;
29380;SDS011;16364;52.490;13.326;2022-09-25T15:41:41;7.57;;;6.87;;
29380;SDS011;16364;52.490;13.326;2022-09-25T15:44:18;7.67;;;6.97;;
29380;SDS011;16364;52.490;13.326;2022-09-25T15:49:11;7.07;;;6.57;;
29380;SDS011;16364;52.490;13.326;2022-09-25T15:51:37;7.20;;;6.50;;
29380;SDS011;16364;52.490;13.326;2022-09-25T15:56:50;7.40;;;6.80;;
29380;SDS011;16364;52.490;13.326;2022-09-25T15:59:18;6.10;;;5.70;;
29380;SDS011;16364;52.490;13.326;2022-09-25T16:01:44;7.07;;;6.37;;
29380;SDS011;16364;52.490;13.326;2022-09-25T16:04:28;6.53;;;6.03;;
29380;SDS011;16364;52.490;13.326;2022-09-25T16:09:45;6.50;;;6.00;;
29380;SDS011;16364;52.490;13.326;2022-09-25T16:14:48;9.00;;;5.50;;
29380;SDS011;16364;52.490;13.326;2022-09-25T16:17:24;6.50;;;5.83;;
29380;SDS011;16364;52.490;13.326;2022-09-25T16:20:00;13.03;;;9.20;;
29380;SDS011;16364;52.490;13.326;2022-09-25T16:22:26;9.10;;;8.27;;
29380;SDS011;16364;52.490;13.326;2022-09-25T16:24:53;9.07;;;8.27;;
29380;SDS011;16364;52.490;13.326;2022-09-25T16:27:27;8.83;;;7.90;;
29380;SDS011;16364;52.490;13.326;2022-09-25T16:29:52;6.67;;;6.17;;
29380;SDS011;16364;52.490;13.326;2022-09-25T16:32:19;7.67;;;7.07;;
29380;SDS011;16364;52.490;13.326;2022-09-25T16:34:56;6.23;;;5.70;;
29380;SDS011;16364;52.490;13.326;2022-09-25T16:37:22;7.30;;;6.50;;
29380;SDS011;16364;52.490;13.326;2022-09-25T16:42:32;6.17;;;5.67;;
29380;SDS011;16364;52.490;13.326;2022-09-25T16:45:13;5.93;;;5.33;;
29380;SDS011;16364;52.490;13.326;2022-09-25T16:47:38;6.93;;;6.33;;
29380;SDS011;16364;52.490;13.326;2022-09-25T16:50:05;6.57;;;6.07;;
29380;SDS011;16364;52.490;13.326;2022-09-25T16:52:30;7.70;;;7.00;;
29380;SDS011;16364;52.490;13.326;2022-09-25T16:54:58;9.87;;;8.60;;
29380;SDS011;16364;52.490;13.326;2022-09-25T16:57:24;7.43;;;6.83;;
29380;SDS011;16364;52.490;13.326;2022-09-25T16:59:51;6.57;;;6.07;;
29380;SDS011;16364;52.490;13.326;2022-09-25T17:02:21;7.87;;;5.63;;
29380;SDS011;16364;52.490;13.326;2022-09-25T17:04:49;6.07;;;5.53;;
29380;SDS011;16364;52.490;13.326;2022-09-25T17:07:14;6.23;;;5.63;;
29380;SDS011;16364;52.490;13.326;2022-09-25T17:09:40;6.70;;;6.10;;
29380;SDS011;16364;52.490;13.326;2022-09-25T17:12:05;6.10;;;5.60;;
29380;SDS011;16364;52.490;13.326;2022-09-25T17:14:34;5.83;;;5.43;;
29380;SDS011;16364;52.490;13.326;2022-09-25T17:16:59;5.50;;;5.00;;